sensor_id;sensor_type;location;lat;lon;timestamp;P1;durP1;ratioP1;P2;durP2;ratioP2
58222;SDS011;44020;50.890;15.796;2023-04-26T00:01:12;9.30;;;3.70;;
58222;SDS011;44020;50.890;15.796;2023-04-26T00:24:33;6.20;;;2.20;;
58222;SDS011;44020;50.890;15.796;2023-04-26T00:37:26;5.20;;;1.50;;
58222;SDS011;44020;50.890;15.796;2023-04-26T01:25:04;6.90;;;1.90;;
58222;SDS011;44020;50.890;15.796;2023-04-26T01:31:54;3.80;;;1.60;;
58222;SDS011;44020;50.890;15.796;2023-04-26T01:34:43;5.10;;;1.70;;
58222;SDS011;44020;50.890;15.796;2023-04-26T01:57:53;6.10;;;2.10;;
58222;SDS011;44020;50.890;15.796;2023-04-26T02:07:43;4.50;;;1.90;;
58222;SDS011;44020;50.890;15.796;2023-04-26T02:11:03;5.00;;;1.70;;
58222;SDS011;44020;50.890;15.796;2023-04-26T02:14:12;6.90;;;1.70;;
58222;SDS011;44020;50.890;15.796;2023-04-26T02:47:29;4.80;;;1.70;;
58222;SDS011;44020;50.890;15.796;2023-04-26T02:53:56;4.40;;;1.40;;
58222;SDS011;44020;50.890;15.796;2023-04-26T03:00:43;5.80;;;1.80;;
58222;SDS011;44020;50.890;15.796;2023-04-26T03:07:33;6.30;;;1.70;;
58222;SDS011;44020;50.890;15.796;2023-04-26T03:22:59;6.70;;;1.70;;
58222;SDS011;44020;50.890;15.796;2023-04-26T03:29:35;6.90;;;2.20;;
58222;SDS011;44020;50.890;15.796;2023-04-26T03:42:55;7.20;;;2.00;;
58222;SDS011;44020;50.890;15.796;2023-04-26T03:48:58;6.20;;;1.90;;
58222;SDS011;44020;50.890;15.796;2023-04-26T03:58:39;4.60;;;1.30;;
58222;SDS011;44020;50.890;15.796;2023-04-26T04:01:36;9.00;;;2.10;;
58222;SDS011;44020;50.890;15.796;2023-04-26T04:04:05;6.10;;;1.70;;
58222;SDS011;44020;50.890;15.796;2023-04-26T04:07:03;4.80;;;1.40;;
58222;SDS011;44020;50.890;15.796;2023-04-26T04:10:10;7.30;;;1.60;;
58222;SDS011;44020;50.890;15.796;2023-04-26T04:19:18;4.90;;;2.00;;
58222;SDS011;44020;50.890;15.796;2023-04-26T04:22:16;7.10;;;2.30;;
58222;SDS011;44020;50.890;15.796;2023-04-26T04:25:22;4.00;;;2.00;;
58222;SDS011;44020;50.890;15.796;2023-04-26T04:28:43;7.50;;;2.40;;
58222;SDS011;44020;50.890;15.796;2023-04-26T04:41:15;4.00;;;1.50;;
58222;SDS011;44020;50.890;15.796;2023-04-26T04:44:16;6.90;;;1.60;;
58222;SDS011;44020;50.890;15.796;2023-04-26T04:47:19;6.00;;;1.40;;
58222;SDS011;44020;50.890;15.796;2023-04-26T04:49:49;4.10;;;1.10;;
58222;SDS011;44020;50.890;15.796;2023-04-26T04:52:23;4.80;;;1.20;;
58222;SDS011;44020;50.890;15.796;2023-04-26T04:55:21;5.30;;;1.30;;
58222;SDS011;44020;50.890;15.796;2023-04-26T04:58:42;7.80;;;1.50;;
58222;SDS011;44020;50.890;15.796;2023-04-26T05:01:34;8.30;;;1.30;;
58222;SDS011;44020;50.890;15.796;2023-04-26T05:04:24;6.60;;;1.10;;
58222;SDS011;44020;50.890;15.796;2023-04-26T05:07:11;4.00;;;1.20;;
58222;SDS011;44020;50.890;15.796;2023-04-26T05:09:44;7.80;;;1.30;;
58222;SDS011;44020;50.890;15.796;2023-04-26T05:12:22;3.60;;;1.10;;
58222;SDS011;44020;50.890;15.796;2023-04-26T05:14:53;4.50;;;1.40;;
58222;SDS011;44020;50.890;15.796;2023-04-26T05:17:33;4.90;;;1.30;;
58222;SDS011;44020;50.890;15.796;2023-04-26T05:20:01;4.50;;;1.30;;
58222;SDS011;44020;50.890;15.796;2023-04-26T05:22:38;7.00;;;1.50;;
58222;SDS011;44020;50.890;15.796;2023-04-26T05:25:09;5.60;;;1.50;;
58222;SDS011;44020;50.890;15.796;2023-04-26T05:27:42;6.00;;;1.50;;
58222;SDS011;44020;50.890;15.796;2023-04-26T05:30:29;8.60;;;1.60;;
58222;SDS011;44020;50.890;15.796;2023-04-26T05:33:16;6.20;;;1.80;;
58222;SDS011;44020;50.890;15.796;2023-04-26T05:38:52;8.00;;;1.70;;
58222;SDS011;44020;50.890;15.796;2023-04-26T05:41:50;9.20;;;1.50;;
58222;SDS011;44020;50.890;15.796;2023-04-26T05:44:31;7.30;;;1.80;;
58222;SDS011;44020;50.890;15.796;2023-04-26T05:47:19;5.90;;;1.60;;
58222;SDS011;44020;50.890;15.796;2023-04-26T05:49:53;6.70;;;1.50;;
58222;SDS011;44020;50.890;15.796;2023-04-26T05:52:49;6.90;;;1.60;;
58222;SDS011;44020;50.890;15.796;2023-04-26T05:55:41;9.90;;;1.90;;
58222;SDS011;44020;50.890;15.796;2023-04-26T06:01:41;5.70;;;1.70;;
58222;SDS011;44020;50.890;15.796;2023-04-26T06:04:41;6.50;;;1.90;;
58222;SDS011;44020;50.890;15.796;2023-04-26T06:07:39;5.80;;;1.80;;
58222;SDS011;44020;50.890;15.796;2023-04-26T06:10:39;7.70;;;2.00;;
58222;SDS011;44020;50.890;15.796;2023-04-26T06:13:29;9.30;;;1.90;;
58222;SDS011;44020;50.890;15.796;2023-04-26T06:16:15;7.30;;;2.20;;
58222;SDS011;44020;50.890;15.796;2023-04-26T06:22:49;7.50;;;2.00;;
58222;SDS011;44020;50.890;15.796;2023-04-26T06:28:31;10.20;;;2.10;;
58222;SDS011;44020;50.890;15.796;2023-04-26T06:34:16;5.90;;;1.30;;
58222;SDS011;44020;50.890;15.796;2023-04-26T06:37:00;7.20;;;1.80;;
58222;SDS011;44020;50.890;15.796;2023-04-26T06:39:44;5.40;;;1.60;;
58222;SDS011;44020;50.890;15.796;2023-04-26T06:45:49;8.00;;;2.00;;
58222;SDS011;44020;50.890;15.796;2023-04-26T06:55:05;5.90;;;1.60;;
58222;SDS011;44020;50.890;15.796;2023-04-26T06:57:50;6.70;;;1.30;;
58222;SDS011;44020;50.890;15.796;2023-04-26T07:03:12;5.70;;;1.40;;
58222;SDS011;44020;50.890;15.796;2023-04-26T07:09:05;4.10;;;1.30;;
58222;SDS011;44020;50.890;15.796;2023-04-26T07:15:04;6.90;;;1.60;;
58222;SDS011;44020;50.890;15.796;2023-04-26T07:17:53;7.30;;;1.30;;
58222;SDS011;44020;50.890;15.796;2023-04-26T07:20:30;7.20;;;1.30;;
58222;SDS011;44020;50.890;15.796;2023-04-26T07:23:17;4.20;;;1.20;;
58222;SDS011;44020;50.890;15.796;2023-04-26T07:26:53;8.10;;;1.60;;
58222;SDS011;44020;50.890;15.796;2023-04-26T07:29:40;4.00;;;0.90;;
58222;SDS011;44020;50.890;15.796;2023-04-26T07:32:33;5.70;;;1.00;;
58222;SDS011;44020;50.890;15.796;2023-04-26T07:35:04;5.60;;;1.50;;
58222;SDS011;44020;50.890;15.796;2023-04-26T07:37:47;19.30;;;8.80;;
58222;SDS011;44020;50.890;15.796;2023-04-26T07:40:35;8.90;;;2.80;;
58222;SDS011;44020;50.890;15.796;2023-04-26T07:46:14;8.60;;;1.30;;
58222;SDS011;44020;50.890;15.796;2023-04-26T07:49:14;5.20;;;1.10;;
58222;SDS011;44020;50.890;15.796;2023-04-26T07:51:52;4.80;;;1.00;;
58222;SDS011;44020;50.890;15.796;2023-04-26T07:54:41;4.60;;;1.00;;
58222;SDS011;44020;50.890;15.796;2023-04-26T07:59:55;5.20;;;1.40;;
58222;SDS011;44020;50.890;15.796;2023-04-26T08:02:33;4.20;;;1.00;;
58222;SDS011;44020;50.890;15.796;2023-04-26T08:05:43;9.10;;;1.80;;
58222;SDS011;44020;50.890;15.796;2023-04-26T08:08:36;7.60;;;1.50;;
58222;SDS011;44020;50.890;15.796;2023-04-26T08:11:31;6.30;;;1.30;;
58222;SDS011;44020;50.890;15.796;2023-04-26T08:14:28;7.10;;;1.20;;
58222;SDS011;44020;50.890;15.796;2023-04-26T08:17:03;7.20;;;1.50;;
58222;SDS011;44020;50.890;15.796;2023-04-26T08:19:38;8.60;;;2.00;;
58222;SDS011;44020;50.890;15.796;2023-04-26T08:22:11;5.50;;;1.50;;
58222;SDS011;44020;50.890;15.796;2023-04-26T08:24:46;3.20;;;1.00;;
58222;SDS011;44020;50.890;15.796;2023-04-26T08:27:30;6.40;;;1.30;;
58222;SDS011;44020;50.890;15.796;2023-04-26T08:30:10;5.00;;;1.00;;
58222;SDS011;44020;50.890;15.796;2023-04-26T08:35:58;7.30;;;1.20;;
58222;SDS011;44020;50.890;15.796;2023-04-26T08:41:49;4.90;;;1.40;;
58222;SDS011;44020;50.890;15.796;2023-04-26T08:44:59;5.60;;;1.00;;
58222;SDS011;44020;50.890;15.796;2023-04-26T08:47:55;3.90;;;0.90;;
58222;SDS011;44020;50.890;15.796;2023-04-26T08:50:36;4.10;;;1.10;;
58222;SDS011;44020;50.890;15.796;2023-04-26T08:53:30;3.80;;;1.20;;
58222;SDS011;44020;50.890;15.796;2023-04-26T08:59:12;8.60;;;1.30;;
58222;SDS011;44020;50.890;15.796;2023-04-26T09:01:48;3.80;;;1.10;;
58222;SDS011;44020;50.890;15.796;2023-04-26T09:04:23;5.00;;;1.20;;
58222;SDS011;44020;50.890;15.796;2023-04-26T09:07:05;5.30;;;1.80;;
58222;SDS011;44020;50.890;15.796;2023-04-26T09:10:27;3.20;;;0.90;;
58222;SDS011;44020;50.890;15.796;2023-04-26T09:13:10;2.30;;;0.90;;
58222;SDS011;44020;50.890;15.796;2023-04-26T09:16:00;3.20;;;0.80;;
58222;SDS011;44020;50.890;15.796;2023-04-26T09:18:54;4.00;;;0.80;;
58222;SDS011;44020;50.890;15.796;2023-04-26T09:31:03;4.80;;;1.30;;
58222;SDS011;44020;50.890;15.796;2023-04-26T09:33:56;8.80;;;1.60;;
58222;SDS011;44020;50.890;15.796;2023-04-26T09:37:06;4.20;;;0.80;;
58222;SDS011;44020;50.890;15.796;2023-04-26T09:39:46;4.00;;;0.80;;
58222;SDS011;44020;50.890;15.796;2023-04-26T09:42:19;4.50;;;0.90;;
58222;SDS011;44020;50.890;15.796;2023-04-26T09:45:07;5.70;;;0.90;;
58222;SDS011;44020;50.890;15.796;2023-04-26T09:47:38;2.50;;;0.70;;
58222;SDS011;44020;50.890;15.796;2023-04-26T09:50:09;5.10;;;1.00;;
58222;SDS011;44020;50.890;15.796;2023-04-26T09:59:48;6.30;;;1.80;;
58222;SDS011;44020;50.890;15.796;2023-04-26T10:02:32;5.00;;;1.80;;
58222;SDS011;44020;50.890;15.796;2023-04-26T10:05:09;4.40;;;2.00;;
58222;SDS011;44020;50.890;15.796;2023-04-26T10:07:52;6.30;;;2.20;;
58222;SDS011;44020;50.890;15.796;2023-04-26T10:10:36;5.30;;;1.20;;
58222;SDS011;44020;50.890;15.796;2023-04-26T10:13:27;4.00;;;0.90;;
58222;SDS011;44020;50.890;15.796;2023-04-26T10:16:05;4.10;;;0.70;;
58222;SDS011;44020;50.890;15.796;2023-04-26T10:21:45;4.70;;;1.00;;
58222;SDS011;44020;50.890;15.796;2023-04-26T10:24:27;9.50;;;1.00;;
58222;SDS011;44020;50.890;15.796;2023-04-26T10:42:36;4.70;;;0.60;;
58222;SDS011;44020;50.890;15.796;2023-04-26T10:45:47;4.50;;;0.70;;
58222;SDS011;44020;50.890;15.796;2023-04-26T10:48:51;3.90;;;1.10;;
58222;SDS011;44020;50.890;15.796;2023-04-26T10:51:36;1.90;;;0.70;;
58222;SDS011;44020;50.890;15.796;2023-04-26T10:54:07;3.60;;;0.70;;
58222;SDS011;44020;50.890;15.796;2023-04-26T11:02:44;4.80;;;1.20;;
58222;SDS011;44020;50.890;15.796;2023-04-26T11:05:38;3.90;;;0.90;;
58222;SDS011;44020;50.890;15.796;2023-04-26T11:11:06;3.90;;;1.20;;
58222;SDS011;44020;50.890;15.796;2023-04-26T11:13:47;4.50;;;1.10;;
58222;SDS011;44020;50.890;15.796;2023-04-26T11:16:15;4.20;;;1.00;;
58222;SDS011;44020;50.890;15.796;2023-04-26T11:18:56;2.50;;;0.90;;
58222;SDS011;44020;50.890;15.796;2023-04-26T11:21:51;5.50;;;1.00;;
58222;SDS011;44020;50.890;15.796;2023-04-26T11:24:39;5.60;;;1.20;;
58222;SDS011;44020;50.890;15.796;2023-04-26T11:27:19;5.80;;;0.80;;
58222;SDS011;44020;50.890;15.796;2023-04-26T11:30:06;3.40;;;0.80;;
58222;SDS011;44020;50.890;15.796;2023-04-26T11:33:00;2.90;;;0.90;;
58222;SDS011;44020;50.890;15.796;2023-04-26T11:35:41;4.30;;;1.30;;
58222;SDS011;44020;50.890;15.796;2023-04-26T11:38:12;3.60;;;0.90;;
58222;SDS011;44020;50.890;15.796;2023-04-26T11:40:43;3.90;;;1.20;;
58222;SDS011;44020;50.890;15.796;2023-04-26T11:43:41;5.10;;;1.00;;
58222;SDS011;44020;50.890;15.796;2023-04-26T11:46:12;4.00;;;1.20;;
58222;SDS011;44020;50.890;15.796;2023-04-26T11:51:51;8.10;;;2.20;;
58222;SDS011;44020;50.890;15.796;2023-04-26T11:57:36;3.00;;;1.00;;
58222;SDS011;44020;50.890;15.796;2023-04-26T12:00:12;6.00;;;1.10;;
58222;SDS011;44020;50.890;15.796;2023-04-26T12:08:47;5.50;;;1.20;;
58222;SDS011;44020;50.890;15.796;2023-04-26T12:11:17;7.00;;;1.30;;
58222;SDS011;44020;50.890;15.796;2023-04-26T12:13:48;8.20;;;2.20;;
58222;SDS011;44020;50.890;15.796;2023-04-26T12:16:46;10.60;;;2.40;;
58222;SDS011;44020;50.890;15.796;2023-04-26T12:19:40;5.00;;;1.20;;
58222;SDS011;44020;50.890;15.796;2023-04-26T12:22:57;3.90;;;1.30;;
58222;SDS011;44020;50.890;15.796;2023-04-26T12:31:11;8.50;;;2.90;;
58222;SDS011;44020;50.890;15.796;2023-04-26T12:34:04;7.30;;;2.70;;
58222;SDS011;44020;50.890;15.796;2023-04-26T12:36:35;6.70;;;2.70;;
58222;SDS011;44020;50.890;15.796;2023-04-26T12:39:05;6.00;;;2.00;;
58222;SDS011;44020;50.890;15.796;2023-04-26T12:41:56;3.50;;;1.50;;
58222;SDS011;44020;50.890;15.796;2023-04-26T12:47:25;5.30;;;1.40;;
58222;SDS011;44020;50.890;15.796;2023-04-26T12:50:15;3.80;;;1.20;;
58222;SDS011;44020;50.890;15.796;2023-04-26T12:53:09;3.80;;;1.40;;
58222;SDS011;44020;50.890;15.796;2023-04-26T12:55:50;5.60;;;1.40;;
58222;SDS011;44020;50.890;15.796;2023-04-26T12:58:18;5.10;;;1.80;;
58222;SDS011;44020;50.890;15.796;2023-04-26T13:03:38;6.10;;;1.60;;
58222;SDS011;44020;50.890;15.796;2023-04-26T13:09:12;5.80;;;1.40;;
58222;SDS011;44020;50.890;15.796;2023-04-26T13:15:07;6.40;;;1.90;;
58222;SDS011;44020;50.890;15.796;2023-04-26T13:20:59;4.70;;;1.40;;
58222;SDS011;44020;50.890;15.796;2023-04-26T13:26:55;4.50;;;1.50;;
58222;SDS011;44020;50.890;15.796;2023-04-26T13:29:43;4.10;;;1.50;;
58222;SDS011;44020;50.890;15.796;2023-04-26T13:32:10;4.50;;;1.40;;
58222;SDS011;44020;50.890;15.796;2023-04-26T13:34:39;5.00;;;1.50;;
58222;SDS011;44020;50.890;15.796;2023-04-26T13:37:07;5.00;;;1.40;;
58222;SDS011;44020;50.890;15.796;2023-04-26T13:39:40;5.20;;;1.70;;
58222;SDS011;44020;50.890;15.796;2023-04-26T13:42:07;9.70;;;3.00;;
58222;SDS011;44020;50.890;15.796;2023-04-26T13:44:38;11.50;;;3.60;;
58222;SDS011;44020;50.890;15.796;2023-04-26T13:47:06;7.30;;;2.40;;
58222;SDS011;44020;50.890;15.796;2023-04-26T13:49:34;7.50;;;1.60;;
58222;SDS011;44020;50.890;15.796;2023-04-26T13:52:10;3.80;;;1.50;;
58222;SDS011;44020;50.890;15.796;2023-04-26T13:54:41;3.60;;;1.30;;
58222;SDS011;44020;50.890;15.796;2023-04-26T13:57:23;6.90;;;2.10;;
58222;SDS011;44020;50.890;15.796;2023-04-26T13:59:51;5.40;;;1.70;;
58222;SDS011;44020;50.890;15.796;2023-04-26T14:02:19;6.50;;;1.90;;
58222;SDS011;44020;50.890;15.796;2023-04-26T14:04:48;5.90;;;1.60;;
58222;SDS011;44020;50.890;15.796;2023-04-26T14:07:23;9.20;;;2.40;;
58222;SDS011;44020;50.890;15.796;2023-04-26T14:09:56;7.40;;;2.30;;
58222;SDS011;44020;50.890;15.796;2023-04-26T14:12:49;7.50;;;2.50;;
58222;SDS011;44020;50.890;15.796;2023-04-26T14:15:25;6.30;;;1.90;;
58222;SDS011;44020;50.890;15.796;2023-04-26T14:17:52;9.40;;;3.30;;
58222;SDS011;44020;50.890;15.796;2023-04-26T14:20:20;9.60;;;2.50;;
58222;SDS011;44020;50.890;15.796;2023-04-26T14:22:47;9.10;;;2.50;;
58222;SDS011;44020;50.890;15.796;2023-04-26T14:25:37;8.90;;;3.40;;
58222;SDS011;44020;50.890;15.796;2023-04-26T14:28:12;7.40;;;2.30;;
58222;SDS011;44020;50.890;15.796;2023-04-26T14:30:42;6.60;;;2.30;;
58222;SDS011;44020;50.890;15.796;2023-04-26T14:33:13;6.70;;;1.70;;
58222;SDS011;44020;50.890;15.796;2023-04-26T14:35:50;4.60;;;2.00;;
58222;SDS011;44020;50.890;15.796;2023-04-26T14:41:01;9.40;;;3.00;;
58222;SDS011;44020;50.890;15.796;2023-04-26T14:43:52;7.70;;;1.80;;
58222;SDS011;44020;50.890;15.796;2023-04-26T14:46:20;6.30;;;2.20;;
58222;SDS011;44020;50.890;15.796;2023-04-26T14:48:50;7.60;;;2.40;;
58222;SDS011;44020;50.890;15.796;2023-04-26T14:51:21;10.80;;;2.20;;
58222;SDS011;44020;50.890;15.796;2023-04-26T14:54:09;18.30;;;8.90;;
58222;SDS011;44020;50.890;15.796;2023-04-26T14:56:39;11.30;;;5.40;;
58222;SDS011;44020;50.890;15.796;2023-04-26T14:59:13;14.70;;;5.80;;
58222;SDS011;44020;50.890;15.796;2023-04-26T15:01:43;12.60;;;5.40;;
58222;SDS011;44020;50.890;15.796;2023-04-26T15:13:43;12.80;;;4.70;;
58222;SDS011;44020;50.890;15.796;2023-04-26T15:16:31;7.50;;;2.30;;
58222;SDS011;44020;50.890;15.796;2023-04-26T15:22:25;10.00;;;4.30;;
58222;SDS011;44020;50.890;15.796;2023-04-26T15:25:04;9.80;;;2.40;;
58222;SDS011;44020;50.890;15.796;2023-04-26T15:27:47;11.30;;;4.10;;
58222;SDS011;44020;50.890;15.796;2023-04-26T15:33:58;9.70;;;3.50;;
58222;SDS011;44020;50.890;15.796;2023-04-26T15:37:00;11.00;;;5.00;;
58222;SDS011;44020;50.890;15.796;2023-04-26T15:43:10;9.10;;;2.40;;
58222;SDS011;44020;50.890;15.796;2023-04-26T15:45:52;8.00;;;2.80;;
58222;SDS011;44020;50.890;15.796;2023-04-26T15:48:46;8.40;;;2.60;;
58222;SDS011;44020;50.890;15.796;2023-04-26T15:51:37;8.60;;;3.60;;
58222;SDS011;44020;50.890;15.796;2023-04-26T15:54:08;6.50;;;2.50;;
58222;SDS011;44020;50.890;15.796;2023-04-26T15:59:59;18.20;;;7.70;;
58222;SDS011;44020;50.890;15.796;2023-04-26T16:02:27;19.10;;;7.40;;
58222;SDS011;44020;50.890;15.796;2023-04-26T16:04:58;10.00;;;3.80;;
58222;SDS011;44020;50.890;15.796;2023-04-26T16:07:30;13.40;;;5.30;;
58222;SDS011;44020;50.890;15.796;2023-04-26T16:10:39;12.40;;;5.50;;
58222;SDS011;44020;50.890;15.796;2023-04-26T16:13:09;8.30;;;3.30;;
58222;SDS011;44020;50.890;15.796;2023-04-26T16:16:19;8.20;;;3.10;;
58222;SDS011;44020;50.890;15.796;2023-04-26T16:22:25;11.10;;;5.30;;
58222;SDS011;44020;50.890;15.796;2023-04-26T16:25:04;14.20;;;6.60;;
58222;SDS011;44020;50.890;15.796;2023-04-26T16:27:45;8.90;;;3.60;;
58222;SDS011;44020;50.890;15.796;2023-04-26T16:30:16;22.60;;;7.70;;
58222;SDS011;44020;50.890;15.796;2023-04-26T16:35:35;11.40;;;5.50;;
58222;SDS011;44020;50.890;15.796;2023-04-26T16:38:14;9.80;;;4.40;;
58222;SDS011;44020;50.890;15.796;2023-04-26T16:50:41;11.40;;;3.80;;
58222;SDS011;44020;50.890;15.796;2023-04-26T16:53:49;15.40;;;4.80;;
58222;SDS011;44020;50.890;15.796;2023-04-26T16:56:25;10.20;;;3.30;;
58222;SDS011;44020;50.890;15.796;2023-04-26T16:59:03;14.30;;;3.90;;
58222;SDS011;44020;50.890;15.796;2023-04-26T17:01:42;15.80;;;6.20;;
58222;SDS011;44020;50.890;15.796;2023-04-26T17:04:45;9.30;;;4.00;;
58222;SDS011;44020;50.890;15.796;2023-04-26T17:13:49;10.70;;;4.20;;
58222;SDS011;44020;50.890;15.796;2023-04-26T17:16:28;10.80;;;6.10;;
58222;SDS011;44020;50.890;15.796;2023-04-26T17:18:59;15.90;;;6.20;;
58222;SDS011;44020;50.890;15.796;2023-04-26T17:21:50;15.10;;;7.10;;
58222;SDS011;44020;50.890;15.796;2023-04-26T17:27:39;7.40;;;3.50;;
58222;SDS011;44020;50.890;15.796;2023-04-26T17:30:47;11.20;;;5.10;;
58222;SDS011;44020;50.890;15.796;2023-04-26T17:36:59;13.60;;;5.10;;
58222;SDS011;44020;50.890;15.796;2023-04-26T17:46:29;14.40;;;6.60;;
58222;SDS011;44020;50.890;15.796;2023-04-26T17:49:31;80.90;;;36.30;;
58222;SDS011;44020;50.890;15.796;2023-04-26T18:02:38;18.50;;;8.00;;
58222;SDS011;44020;50.890;15.796;2023-04-26T18:11:57;9.90;;;5.40;;
58222;SDS011;44020;50.890;15.796;2023-04-26T18:21:22;11.80;;;4.40;;
58222;SDS011;44020;50.890;15.796;2023-04-26T18:54:13;11.50;;;7.30;;
58222;SDS011;44020;50.890;15.796;2023-04-26T18:56:59;9.80;;;5.00;;
58222;SDS011;44020;50.890;15.796;2023-04-26T19:19:44;9.10;;;4.20;;
58222;SDS011;44020;50.890;15.796;2023-04-26T19:22:27;10.50;;;3.70;;
58222;SDS011;44020;50.890;15.796;2023-04-26T19:25:29;10.50;;;3.80;;
58222;SDS011;44020;50.890;15.796;2023-04-26T19:28:31;12.20;;;3.60;;
58222;SDS011;44020;50.890;15.796;2023-04-26T19:34:44;10.00;;;4.80;;
58222;SDS011;44020;50.890;15.796;2023-04-26T19:38:25;13.70;;;5.40;;
58222;SDS011;44020;50.890;15.796;2023-04-26T19:44:16;25.80;;;8.70;;
58222;SDS011;44020;50.890;15.796;2023-04-26T20:02:21;31.00;;;11.60;;
58222;SDS011;44020;50.890;15.796;2023-04-26T20:05:19;25.10;;;9.90;;
58222;SDS011;44020;50.890;15.796;2023-04-26T20:08:31;19.90;;;8.90;;
58222;SDS011;44020;50.890;15.796;2023-04-26T20:11:20;16.00;;;7.20;;
58222;SDS011;44020;50.890;15.796;2023-04-26T20:24:31;32.40;;;13.10;;
58222;SDS011;44020;50.890;15.796;2023-04-26T20:34:05;37.10;;;15.70;;
58222;SDS011;44020;50.890;15.796;2023-04-26T20:43:38;47.60;;;19.90;;
58222;SDS011;44020;50.890;15.796;2023-04-26T20:46:08;40.80;;;18.90;;
58222;SDS011;44020;50.890;15.796;2023-04-26T20:48:34;56.20;;;23.90;;
58222;SDS011;44020;50.890;15.796;2023-04-26T20:51:33;41.90;;;19.20;;
58222;SDS011;44020;50.890;15.796;2023-04-26T20:54:21;41.00;;;18.10;;
58222;SDS011;44020;50.890;15.796;2023-04-26T21:00:24;41.90;;;19.80;;
58222;SDS011;44020;50.890;15.796;2023-04-26T21:06:38;39.90;;;18.10;;
58222;SDS011;44020;50.890;15.796;2023-04-26T21:09:25;39.80;;;17.60;;
58222;SDS011;44020;50.890;15.796;2023-04-26T21:15:54;37.70;;;16.40;;
58222;SDS011;44020;50.890;15.796;2023-04-26T21:26:07;50.60;;;21.60;;
58222;SDS011;44020;50.890;15.796;2023-04-26T21:40:15;48.80;;;19.60;;
58222;SDS011;44020;50.890;15.796;2023-04-26T22:09:41;43.30;;;18.10;;
58222;SDS011;44020;50.890;15.796;2023-04-26T22:19:41;47.50;;;20.20;;
58222;SDS011;44020;50.890;15.796;2023-04-26T22:25:50;34.10;;;16.00;;
58222;SDS011;44020;50.890;15.796;2023-04-26T22:28:41;42.80;;;16.40;;
58222;SDS011;44020;50.890;15.796;2023-04-26T22:34:27;38.80;;;17.00;;
58222;SDS011;44020;50.890;15.796;2023-04-26T22:37:20;41.30;;;17.90;;
58222;SDS011;44020;50.890;15.796;2023-04-26T22:40:38;51.70;;;19.50;;
58222;SDS011;44020;50.890;15.796;2023-04-26T22:43:27;51.60;;;20.80;;
58222;SDS011;44020;50.890;15.796;2023-04-26T22:46:42;46.60;;;19.50;;
58222;SDS011;44020;50.890;15.796;2023-04-26T22:49:46;46.80;;;19.40;;
58222;SDS011;44020;50.890;15.796;2023-04-26T22:52:27;40.80;;;17.40;;
58222;SDS011;44020;50.890;15.796;2023-04-26T22:55:00;31.20;;;15.20;;
58222;SDS011;44020;50.890;15.796;2023-04-26T23:00:43;21.60;;;10.90;;
58222;SDS011;44020;50.890;15.796;2023-04-26T23:10:04;20.00;;;10.50;;
58222;SDS011;44020;50.890;15.796;2023-04-26T23:26:33;25.20;;;12.00;;
58222;SDS011;44020;50.890;15.796;2023-04-26T23:35:19;27.20;;;13.30;;
58222;SDS011;44020;50.890;15.796;2023-04-26T23:44:11;22.40;;;11.00;;
58222;SDS011;44020;50.890;15.796;2023-04-26T23:47:29;25.20;;;11.90;;
